Time;durP1;ratioP1;P1;durP2;ratioP2;P2;SDS_P1;SDS_P2;PMS_P1;PMS_P2;Temp;Humidity;BMP_temperature;BMP_pressure;BME280_temperature;BME280_humidity;BME280_pressure;Samples;Min_cycle;Max_cycle;Signal;HPM_P1;HPM_P2
2023/09/30 00:01:36;;;;;;;9.07;4.10;;;;;;;;;;5057265;28;20056;-72
2023/09/30 00:04:05;;;;;;;5.45;3.80;;;;;;;;;;5051260;28;20501;-71
2023/09/30 00:06:31;;;;;;;5.63;4.40;;;;;;;;;;5050182;28;20049;-72
2023/09/30 00:08:58;;;;;;;7.25;3.72;;;;;;;;;;5050714;28;20050;-72
2023/09/30 00:11:26;;;;;;;7.85;4.10;;;;;;;;;;5054586;28;20045;-72
2023/09/30 00:13:53;;;;;;;9.57;4.10;;;;;;;;;;5045219;28;20485;-72
2023/09/30 00:16:19;;;;;;;10.57;4.25;;;;;;;;;;5043265;28;20124;-71
2023/09/30 00:18:46;;;;;;;6.57;3.92;;;;;;;;;;5055786;28;20394;-71
2023/09/30 00:21:12;;;;;;;9.88;4.38;;;;;;;;;;5041810;28;20080;-72
2023/09/30 00:23:39;;;;;;;7.30;4.13;;;;;;;;;;5045195;28;20047;-72
2023/09/30 00:26:05;;;;;;;10.10;4.53;;;;;;;;;;5053076;28;20045;-72
2023/09/30 00:28:33;;;;;;;8.48;3.88;;;;;;;;;;5046781;28;20045;-71
2023/09/30 00:31:00;;;;;;;7.85;3.85;;;;;;;;;;5049367;28;20047;-71
2023/09/30 00:33:26;;;;;;;8.23;4.55;;;;;;;;;;5041463;28;20048;-72
2023/09/30 00:35:53;;;;;;;12.10;4.45;;;;;;;;;;5053674;28;20469;-72
2023/09/30 00:38:19;;;;;;;8.23;4.13;;;;;;;;;;5045955;28;20042;-72
2023/09/30 00:40:49;;;;;;;10.15;5.18;;;;;;;;;;5044356;28;20398;-71
2023/09/30 00:43:20;;;;;;;5.93;3.90;;;;;;;;;;5063795;28;20075;-71
2023/09/30 00:45:49;;;;;;;8.15;4.03;;;;;;;;;;5054000;28;20040;-71
2023/09/30 00:48:17;;;;;;;8.40;4.32;;;;;;;;;;5057271;28;20049;-71
2023/09/30 00:50:44;;;;;;;6.95;4.30;;;;;;;;;;5060516;28;20053;-71
2023/09/30 00:53:10;;;;;;;8.45;4.30;;;;;;;;;;5048040;28;20505;-72
2023/09/30 00:55:37;;;;;;;6.68;4.30;;;;;;;;;;5046602;28;20091;-72
2023/09/30 00:58:04;;;;;;;6.50;4.35;;;;;;;;;;5048232;28;20045;-71
2023/09/30 01:00:31;;;;;;;6.60;3.67;;;;;;;;;;5042052;28;20064;-72
2023/09/30 01:03:03;;;;;;;7.75;4.22;;;;;;;;;;5041482;28;20050;-72
2023/09/30 01:05:30;;;;;;;9.57;4.10;;;;;;;;;;5055332;28;20048;-72
2023/09/30 01:07:57;;;;;;;8.75;3.97;;;;;;;;;;5048369;28;20056;-71
2023/09/30 01:10:23;;;;;;;10.73;4.18;;;;;;;;;;5053308;28;20485;-71
2023/09/30 01:12:50;;;;;;;6.68;3.90;;;;;;;;;;5045879;28;20068;-72
2023/09/30 01:15:16;;;;;;;11.93;4.40;;;;;;;;;;5039470;28;20421;-71
2023/09/30 01:17:43;;;;;;;6.13;3.75;;;;;;;;;;5053757;28;20041;-71
2023/09/30 01:20:22;;;;;;;5.07;3.78;;;;;;;;;;5047925;28;20049;-71
2023/09/30 01:22:50;;;;;;;6.03;3.63;;;;;;;;;;5054470;28;20045;-72
2023/09/30 01:25:17;;;;;;;5.35;3.55;;;;;;;;;;5051184;28;20083;-72
2023/09/30 01:27:43;;;;;;;6.95;3.72;;;;;;;;;;5042320;28;20135;-72
2023/09/30 01:30:11;;;;;;;6.65;3.88;;;;;;;;;;5051484;28;20045;-72
2023/09/30 01:32:37;;;;;;;6.40;3.88;;;;;;;;;;5045776;28;20114;-72
2023/09/30 01:35:05;;;;;;;6.32;3.70;;;;;;;;;;5043361;28;20046;-72
2023/09/30 01:37:31;;;;;;;6.70;3.92;;;;;;;;;;5048148;28;20435;-72
2023/09/30 01:39:59;;;;;;;6.38;3.78;;;;;;;;;;5047333;28;20053;-71
2023/09/30 01:42:26;;;;;;;9.05;4.07;;;;;;;;;;5040847;28;20049;-71
2023/09/30 01:44:53;;;;;;;8.30;4.43;;;;;;;;;;5043472;28;20092;-72
2023/09/30 01:47:19;;;;;;;10.48;4.00;;;;;;;;;;5051056;28;20439;-72
2023/09/30 01:49:46;;;;;;;6.90;3.83;;;;;;;;;;5045322;28;20045;-73
2023/09/30 01:52:12;;;;;;;9.40;4.30;;;;;;;;;;5052171;28;20051;-72
2023/09/30 01:54:39;;;;;;;7.82;4.20;;;;;;;;;;5042613;28;20052;-72
2023/09/30 01:57:07;;;;;;;7.75;4.35;;;;;;;;;;5048568;28;20048;-71
2023/09/30 01:59:34;;;;;;;9.10;4.47;;;;;;;;;;5046577;28;20064;-72
2023/09/30 02:02:02;;;;;;;9.95;4.30;;;;;;;;;;5054443;28;20045;-71
2023/09/30 02:04:29;;;;;;;8.10;4.18;;;;;;;;;;5042933;28;20045;-72
2023/09/30 02:06:56;;;;;;;8.63;4.47;;;;;;;;;;5043027;28;20469;-72
2023/09/30 02:09:22;;;;;;;7.75;4.40;;;;;;;;;;5042157;28;20049;-71
2023/09/30 02:11:49;;;;;;;8.45;4.22;;;;;;;;;;5050332;28;20055;-72
2023/09/30 02:14:17;;;;;;;7.90;4.10;;;;;;;;;;5043250;28;20528;-71
2023/09/30 02:16:43;;;;;;;8.00;4.13;;;;;;;;;;5050526;28;20051;-72
2023/09/30 02:19:10;;;;;;;5.53;3.67;;;;;;;;;;5050070;28;20041;-71
2023/09/30 02:21:37;;;;;;;5.43;3.95;;;;;;;;;;5037792;28;20057;-71
2023/09/30 02:24:06;;;;;;;5.68;3.60;;;;;;;;;;5042214;28;20121;-72
2023/09/30 02:26:33;;;;;;;5.70;3.47;;;;;;;;;;5052000;28;20045;-72
2023/09/30 02:28:59;;;;;;;5.68;3.60;;;;;;;;;;5051873;28;20045;-72
2023/09/30 02:31:27;;;;;;;12.45;3.63;;;;;;;;;;5053254;28;20047;-71
2023/09/30 02:33:54;;;;;;;8.18;4.20;;;;;;;;;;5049796;28;20041;-71
2023/09/30 02:36:20;;;;;;;8.43;4.75;;;;;;;;;;5054267;28;20423;-71
2023/09/30 02:38:47;;;;;;;7.20;4.25;;;;;;;;;;5061902;28;20049;-71
2023/09/30 02:41:13;;;;;;;9.00;4.15;;;;;;;;;;5056998;28;20318;-72
2023/09/30 02:43:40;;;;;;;8.75;4.50;;;;;;;;;;5048967;28;20045;-72
2023/09/30 02:46:08;;;;;;;10.05;5.10;;;;;;;;;;5045774;28;20049;-71
2023/09/30 02:48:36;;;;;;;12.88;5.60;;;;;;;;;;5051365;28;20055;-72
2023/09/30 02:51:03;;;;;;;8.73;4.63;;;;;;;;;;5061494;28;20053;-71
2023/09/30 02:53:29;;;;;;;8.35;3.83;;;;;;;;;;5056217;28;20072;-72
2023/09/30 02:55:59;;;;;;;11.63;4.15;;;;;;;;;;5051900;28;20421;-72
2023/09/30 02:58:26;;;;;;;13.77;5.15;;;;;;;;;;5039381;28;20045;-71
2023/09/30 03:00:52;;;;;;;12.43;5.32;;;;;;;;;;5061312;28;20067;-71
2023/09/30 03:03:19;;;;;;;12.70;5.38;;;;;;;;;;5055229;28;20044;-71
2023/09/30 03:05:49;;;;;;;17.00;5.75;;;;;;;;;;5056631;28;20492;-72
2023/09/30 03:08:16;;;;;;;19.92;6.13;;;;;;;;;;5063688;28;20080;-71
2023/09/30 03:10:43;;;;;;;18.42;6.20;;;;;;;;;;5049342;28;20047;-71
2023/09/30 03:13:09;;;;;;;16.35;5.95;;;;;;;;;;5057965;28;20132;-72
2023/09/30 03:15:36;;;;;;;18.17;6.75;;;;;;;;;;5049029;28;20643;-72
2023/09/30 03:18:03;;;;;;;28.05;7.07;;;;;;;;;;5054547;28;20139;-73
2023/09/30 03:20:31;;;;;;;16.92;6.50;;;;;;;;;;5055875;28;20534;-73
2023/09/30 03:22:59;;;;;;;17.40;6.60;;;;;;;;;;5055491;28;20045;-73
2023/09/30 03:25:26;;;;;;;15.25;7.03;;;;;;;;;;5057472;28;20424;-73
2023/09/30 03:27:53;;;;;;;18.58;8.15;;;;;;;;;;5046394;28;20143;-73
2023/09/30 03:30:20;;;;;;;14.88;6.97;;;;;;;;;;5054168;28;20044;-73
2023/09/30 03:32:47;;;;;;;16.60;7.55;;;;;;;;;;5057315;28;20554;-74
2023/09/30 03:35:15;;;;;;;19.10;7.88;;;;;;;;;;5052502;28;20049;-73
2023/09/30 03:37:41;;;;;;;19.77;6.90;;;;;;;;;;5061806;28;20051;-72
2023/09/30 03:40:14;;;;;;;18.98;7.03;;;;;;;;;;5056723;28;20053;-73
2023/09/30 03:42:42;;;;;;;21.70;7.32;;;;;;;;;;5047560;28;20052;-73
2023/09/30 03:45:09;;;;;;;26.95;7.30;;;;;;;;;;5053132;28;20045;-73
2023/09/30 03:47:36;;;;;;;28.50;7.18;;;;;;;;;;5046103;28;20045;-73
2023/09/30 03:50:04;;;;;;;16.52;7.35;;;;;;;;;;5051536;28;20050;-73
2023/09/30 03:52:32;;;;;;;15.35;7.07;;;;;;;;;;5052013;28;20063;-74
2023/09/30 03:54:59;;;;;;;22.00;6.60;;;;;;;;;;5048452;28;20057;-73
2023/09/30 03:57:27;;;;;;;19.83;7.30;;;;;;;;;;5052988;28;20041;-73
2023/09/30 03:59:54;;;;;;;20.73;6.78;;;;;;;;;;5049191;28;20053;-73
2023/09/30 04:02:21;;;;;;;18.92;7.32;;;;;;;;;;5048968;28;20045;-73
2023/09/30 04:04:49;;;;;;;31.08;8.48;;;;;;;;;;5054107;28;20084;-73
2023/09/30 04:07:16;;;;;;;19.67;7.30;;;;;;;;;;5043057;28;20053;-72
2023/09/30 04:09:43;;;;;;;16.88;6.55;;;;;;;;;;5045272;28;20051;-72
2023/09/30 04:12:09;;;;;;;14.13;6.47;;;;;;;;;;5048584;28;20049;-73
2023/09/30 04:14:37;;;;;;;14.13;6.25;;;;;;;;;;5055976;28;20388;-72
2023/09/30 04:17:04;;;;;;;14.27;6.13;;;;;;;;;;5045605;28;20441;-73
2023/09/30 04:19:30;;;;;;;24.17;6.15;;;;;;;;;;5051610;28;20045;-73
2023/09/30 04:21:57;;;;;;;13.50;6.03;;;;;;;;;;5048538;28;20045;-73
2023/09/30 04:24:24;;;;;;;13.40;6.57;;;;;;;;;;5050023;28;20045;-73
2023/09/30 04:26:54;;;;;;;15.50;6.88;;;;;;;;;;5050543;28;20045;-72
2023/09/30 04:29:20;;;;;;;11.43;6.03;;;;;;;;;;5043000;28;20572;-72
2023/09/30 04:31:48;;;;;;;12.82;6.88;;;;;;;;;;5046397;28;20135;-73
2023/09/30 04:34:15;;;;;;;12.45;7.38;;;;;;;;;;5054711;28;20045;-73
2023/09/30 04:36:42;;;;;;;14.98;6.75;;;;;;;;;;5046089;28;20045;-73
2023/09/30 04:39:10;;;;;;;15.90;7.38;;;;;;;;;;5040035;28;20056;-72
2023/09/30 04:41:37;;;;;;;16.95;6.85;;;;;;;;;;5045656;28;20053;-73
2023/09/30 04:44:03;;;;;;;18.63;7.30;;;;;;;;;;5051750;28;20451;-72
2023/09/30 04:46:30;;;;;;;24.25;6.80;;;;;;;;;;5047735;28;20072;-73
2023/09/30 04:48:58;;;;;;;12.55;6.82;;;;;;;;;;5044509;28;20496;-72
2023/09/30 04:51:25;;;;;;;15.85;7.43;;;;;;;;;;5049841;28;20551;-72
2023/09/30 04:53:52;;;;;;;13.00;7.25;;;;;;;;;;5044592;28;20117;-72
2023/09/30 04:56:19;;;;;;;15.48;6.47;;;;;;;;;;5041002;28;20342;-73
2023/09/30 04:58:46;;;;;;;17.08;6.90;;;;;;;;;;5052249;28;20098;-73
2023/09/30 05:01:13;;;;;;;13.00;7.30;;;;;;;;;;5053799;28;20101;-72
2023/09/30 05:03:39;;;;;;;14.57;7.60;;;;;;;;;;5052324;28;20047;-73
2023/09/30 05:06:07;;;;;;;17.33;7.85;;;;;;;;;;5044327;28;20049;-73
2023/09/30 05:08:34;;;;;;;16.48;7.28;;;;;;;;;;5044685;28;20052;-73
2023/09/30 05:11:00;;;;;;;13.38;6.72;;;;;;;;;;5046428;28;20051;-73
2023/09/30 05:13:27;;;;;;;11.68;6.05;;;;;;;;;;5047432;28;20430;-73
2023/09/30 05:15:53;;;;;;;14.93;7.13;;;;;;;;;;5042648;28;20045;-73
2023/09/30 05:18:19;;;;;;;12.32;5.97;;;;;;;;;;5050325;28;20050;-72
2023/09/30 05:20:46;;;;;;;12.55;6.03;;;;;;;;;;5049238;28;20056;-73
2023/09/30 05:23:14;;;;;;;14.73;6.40;;;;;;;;;;5047200;28;20076;-73
2023/09/30 05:25:42;;;;;;;20.48;6.85;;;;;;;;;;5047223;28;20107;-73
2023/09/30 05:28:09;;;;;;;14.38;6.38;;;;;;;;;;5046777;28;20099;-73
2023/09/30 05:30:36;;;;;;;13.18;6.32;;;;;;;;;;5044993;28;20520;-73
2023/09/30 05:33:03;;;;;;;9.70;6.15;;;;;;;;;;5052199;28;20048;-73
2023/09/30 05:35:32;;;;;;;11.40;7.13;;;;;;;;;;5045485;28;20525;-73
2023/09/30 05:37:59;;;;;;;14.85;7.30;;;;;;;;;;5048230;28;20489;-73
2023/09/30 05:40:30;;;;;;;14.88;7.95;;;;;;;;;;5040353;28;20068;-73
2023/09/30 05:42:58;;;;;;;24.70;7.18;;;;;;;;;;5051243;28;20057;-73
2023/09/30 05:45:26;;;;;;;14.25;7.60;;;;;;;;;;5044988;28;20416;-72
2023/09/30 05:47:53;;;;;;;16.02;6.82;;;;;;;;;;5047294;28;20607;-73
2023/09/30 05:50:24;;;;;;;13.95;7.32;;;;;;;;;;5047612;28;20541;-73
2023/09/30 05:52:51;;;;;;;18.77;6.80;;;;;;;;;;5043231;28;20052;-73
2023/09/30 05:55:20;;;;;;;25.75;6.90;;;;;;;;;;5043515;28;20045;-73
2023/09/30 05:57:48;;;;;;;14.88;7.03;;;;;;;;;;5049975;28;20045;-73
2023/09/30 06:00:20;;;;;;;11.93;6.38;;;;;;;;;;5051739;28;20052;-72
2023/09/30 06:02:47;;;;;;;11.40;6.57;;;;;;;;;;5046027;28;20118;-73
2023/09/30 06:05:15;;;;;;;16.05;6.63;;;;;;;;;;5041744;28;20088;-73
2023/09/30 06:07:45;;;;;;;15.98;6.80;;;;;;;;;;5044198;28;20428;-73
2023/09/30 06:10:11;;;;;;;11.68;6.10;;;;;;;;;;5045339;28;20044;-73
2023/09/30 06:12:38;;;;;;;13.68;6.47;;;;;;;;;;5051244;28;20060;-73
2023/09/30 06:15:07;;;;;;;9.43;6.13;;;;;;;;;;5039485;28;20045;-72
2023/09/30 06:17:34;;;;;;;14.13;6.05;;;;;;;;;;5042158;28;20059;-73
2023/09/30 06:20:08;;;;;;;11.70;5.75;;;;;;;;;;5045665;28;20040;-73
2023/09/30 06:22:35;;;;;;;10.77;6.38;;;;;;;;;;5048426;28;20053;-73
2023/09/30 06:25:03;;;;;;;11.43;6.40;;;;;;;;;;5047457;28;20041;-73
2023/09/30 06:27:30;;;;;;;13.07;5.32;;;;;;;;;;5050026;28;20492;-73
2023/09/30 06:29:56;;;;;;;12.20;6.38;;;;;;;;;;5044384;28;20416;-73
2023/09/30 06:32:24;;;;;;;12.98;6.50;;;;;;;;;;5047932;28;20469;-73
2023/09/30 06:34:51;;;;;;;10.10;6.40;;;;;;;;;;5049562;28;20485;-73
2023/09/30 06:37:18;;;;;;;12.18;6.55;;;;;;;;;;5047025;28;20048;-74
2023/09/30 06:39:45;;;;;;;11.57;6.18;;;;;;;;;;5051907;28;20045;-72
2023/09/30 06:42:11;;;;;;;10.70;5.72;;;;;;;;;;5042590;28;20049;-73
2023/09/30 06:44:38;;;;;;;9.52;5.90;;;;;;;;;;5048918;28;20520;-73
2023/09/30 06:47:05;;;;;;;7.82;5.50;;;;;;;;;;5052382;28;20437;-73
2023/09/30 06:49:34;;;;;;;10.13;6.50;;;;;;;;;;5046072;28;20056;-73
2023/09/30 06:52:02;;;;;;;10.10;6.05;;;;;;;;;;5046689;28;20320;-73
2023/09/30 06:54:29;;;;;;;9.68;5.72;;;;;;;;;;5041534;28;20041;-73
2023/09/30 06:56:56;;;;;;;7.68;5.07;;;;;;;;;;5047143;28;20041;-73
2023/09/30 06:59:22;;;;;;;9.88;5.70;;;;;;;;;;5048014;28;20055;-73
2023/09/30 07:01:49;;;;;;;9.13;5.38;;;;;;;;;;5045543;28;20490;-73
2023/09/30 07:04:15;;;;;;;10.57;5.53;;;;;;;;;;5046180;28;20049;-73
2023/09/30 07:06:43;;;;;;;8.70;5.35;;;;;;;;;;5047265;28;20049;-73
2023/09/30 07:09:11;;;;;;;9.77;5.68;;;;;;;;;;5043764;28;20046;-72
2023/09/30 07:11:38;;;;;;;8.27;5.70;;;;;;;;;;5046597;28;20493;-73
2023/09/30 07:14:05;;;;;;;7.88;5.55;;;;;;;;;;5045429;28;20403;-73
2023/09/30 07:16:32;;;;;;;10.00;6.22;;;;;;;;;;5041214;28;20056;-73
2023/09/30 07:18:58;;;;;;;8.80;5.18;;;;;;;;;;5046937;28;20045;-73
2023/09/30 07:21:25;;;;;;;9.35;5.32;;;;;;;;;;5049850;28;20052;-73
2023/09/30 07:23:53;;;;;;;9.63;5.50;;;;;;;;;;5052477;28;20485;-73
2023/09/30 07:26:24;;;;;;;9.52;4.75;;;;;;;;;;5049912;28;20050;-73
2023/09/30 07:28:51;;;;;;;9.20;4.78;;;;;;;;;;5048713;28;20098;-73
2023/09/30 07:31:18;;;;;;;7.65;4.82;;;;;;;;;;5050284;28;20054;-73
2023/09/30 07:33:44;;;;;;;7.10;4.85;;;;;;;;;;5050344;28;20492;-73
2023/09/30 07:36:13;;;;;;;8.50;5.13;;;;;;;;;;5043603;28;20045;-73
2023/09/30 07:38:40;;;;;;;8.23;4.68;;;;;;;;;;5053045;28;20483;-73
2023/09/30 07:41:10;;;;;;;6.75;5.05;;;;;;;;;;5048320;28;20041;-72
2023/09/30 07:43:36;;;;;;;8.48;4.75;;;;;;;;;;5049258;28;20053;-73
2023/09/30 07:46:06;;;;;;;7.10;4.82;;;;;;;;;;5041191;28;20045;-73
2023/09/30 07:48:33;;;;;;;7.30;4.88;;;;;;;;;;5049507;28;20049;-73
2023/09/30 07:50:59;;;;;;;7.60;5.10;;;;;;;;;;5051505;28;20044;-73
2023/09/30 07:53:26;;;;;;;11.55;4.85;;;;;;;;;;5047363;28;20041;-73
2023/09/30 07:55:54;;;;;;;10.07;5.40;;;;;;;;;;5051403;28;20486;-74
2023/09/30 07:58:21;;;;;;;7.25;5.10;;;;;;;;;;5046561;28;20053;-74
2023/09/30 08:00:48;;;;;;;10.18;5.00;;;;;;;;;;5045700;28;20048;-74
2023/09/30 08:03:15;;;;;;;10.98;5.65;;;;;;;;;;5048298;28;20111;-73
2023/09/30 08:05:42;;;;;;;8.15;4.93;;;;;;;;;;5049533;28;20056;-73
2023/09/30 08:08:09;;;;;;;7.10;5.38;;;;;;;;;;5048405;28;20421;-74
2023/09/30 08:10:36;;;;;;;8.95;5.03;;;;;;;;;;5047902;28;20130;-74
2023/09/30 08:13:03;;;;;;;6.40;4.43;;;;;;;;;;5046831;28;20512;-74
2023/09/30 08:15:31;;;;;;;6.20;4.20;;;;;;;;;;5055498;28;20067;-74
2023/09/30 08:17:58;;;;;;;6.38;4.68;;;;;;;;;;5054301;28;20057;-74
2023/09/30 08:20:25;;;;;;;7.10;4.50;;;;;;;;;;5051410;28;20424;-74
2023/09/30 08:22:51;;;;;;;6.78;4.70;;;;;;;;;;5053331;28;20059;-73
2023/09/30 08:25:18;;;;;;;8.25;4.95;;;;;;;;;;5046254;28;20052;-72
2023/09/30 08:27:45;;;;;;;6.93;4.68;;;;;;;;;;5049317;28;20074;-74
2023/09/30 08:30:12;;;;;;;5.85;4.70;;;;;;;;;;5050696;28;20053;-73
2023/09/30 08:32:40;;;;;;;6.45;4.63;;;;;;;;;;5046030;28;20053;-74
2023/09/30 08:35:07;;;;;;;5.22;4.25;;;;;;;;;;5046570;28;20045;-74
2023/09/30 08:37:34;;;;;;;6.00;4.32;;;;;;;;;;5043974;28;20049;-74
2023/09/30 08:40:01;;;;;;;6.00;4.38;;;;;;;;;;5045612;28;20041;-74
2023/09/30 08:42:32;;;;;;;6.43;4.35;;;;;;;;;;5054506;28;20056;-74
2023/09/30 08:44:59;;;;;;;8.73;4.70;;;;;;;;;;5055349;28;20133;-76
2023/09/30 08:47:27;;;;;;;6.07;4.35;;;;;;;;;;5041792;28;20048;-73
2023/09/30 08:49:57;;;;;;;7.97;4.40;;;;;;;;;;5047630;28;20052;-74
2023/09/30 08:52:25;;;;;;;5.35;3.90;;;;;;;;;;5053325;28;20110;-74
2023/09/30 08:54:53;;;;;;;7.35;4.85;;;;;;;;;;5044023;28;20501;-74
2023/09/30 08:57:20;;;;;;;7.93;5.18;;;;;;;;;;5047335;28;20048;-74
2023/09/30 08:59:48;;;;;;;7.40;5.30;;;;;;;;;;5048540;28;20489;-74
2023/09/30 09:02:15;;;;;;;6.82;4.60;;;;;;;;;;5052901;28;20132;-74
2023/09/30 09:04:42;;;;;;;7.68;4.97;;;;;;;;;;5043085;28;20052;-74
2023/09/30 09:07:09;;;;;;;8.68;5.22;;;;;;;;;;5047048;28;20069;-73
2023/09/30 09:09:36;;;;;;;7.50;4.95;;;;;;;;;;5047644;28;20047;-74
2023/09/30 09:12:03;;;;;;;8.45;5.57;;;;;;;;;;5044879;28;20462;-74
2023/09/30 09:14:40;;;;;;;8.50;5.22;;;;;;;;;;5042493;28;20058;-74
2023/09/30 09:17:08;;;;;;;9.77;5.10;;;;;;;;;;5048394;28;20100;-74
2023/09/30 09:19:34;;;;;;;7.40;4.95;;;;;;;;;;5046479;28;20049;-74
2023/09/30 09:22:04;;;;;;;7.65;4.70;;;;;;;;;;5052330;28;20045;-74
2023/09/30 09:24:33;;;;;;;6.05;4.80;;;;;;;;;;5053663;28;20049;-73
2023/09/30 09:27:07;;;;;;;7.07;4.90;;;;;;;;;;5045042;28;20059;-74
2023/09/30 09:29:35;;;;;;;7.78;5.00;;;;;;;;;;5049083;28;20046;-74
2023/09/30 09:32:08;;;;;;;7.93;5.07;;;;;;;;;;5046267;28;20051;-74
2023/09/30 09:34:35;;;;;;;6.35;4.57;;;;;;;;;;5056832;28;20090;-73
2023/09/30 09:37:14;;;;;;;9.23;4.95;;;;;;;;;;5048824;28;20136;-74
2023/09/30 09:39:50;;;;;;;7.95;4.70;;;;;;;;;;5052927;28;20045;-74
2023/09/30 09:42:25;;;;;;;7.00;4.68;;;;;;;;;;5049168;28;20048;-74
2023/09/30 09:44:55;;;;;;;6.60;4.78;;;;;;;;;;5047091;28;20504;-74
2023/09/30 09:47:22;;;;;;;9.77;5.28;;;;;;;;;;5050878;28;20045;-73
2023/09/30 09:49:49;;;;;;;5.95;4.28;;;;;;;;;;5044458;28;20292;-74
2023/09/30 09:52:17;;;;;;;7.07;5.18;;;;;;;;;;5050956;28;20044;-74
2023/09/30 09:54:46;;;;;;;7.45;4.85;;;;;;;;;;5053102;28;20404;-73
2023/09/30 09:57:13;;;;;;;9.35;5.47;;;;;;;;;;5048891;28;20049;-74
2023/09/30 09:59:40;;;;;;;7.20;5.30;;;;;;;;;;5050913;28;20056;-74
2023/09/30 10:02:11;;;;;;;7.55;4.88;;;;;;;;;;5052930;28;20049;-74
2023/09/30 10:04:38;;;;;;;6.38;4.68;;;;;;;;;;5048798;28;20053;-73
2023/09/30 10:07:06;;;;;;;7.95;5.18;;;;;;;;;;5043301;28;20069;-74
2023/09/30 10:09:35;;;;;;;7.53;5.07;;;;;;;;;;5048276;28;20059;-74
2023/09/30 10:12:04;;;;;;;7.50;4.75;;;;;;;;;;5046296;28;20041;-73
2023/09/30 10:14:33;;;;;;;10.30;6.18;;;;;;;;;;5047666;28;20052;-74
2023/09/30 10:17:00;;;;;;;6.78;4.50;;;;;;;;;;5043678;28;20075;-74
2023/09/30 10:19:29;;;;;;;10.27;5.80;;;;;;;;;;5044656;28;20109;-74
2023/09/30 10:22:21;;;;;;;9.45;5.80;;;;;;;;;;5052428;28;20047;-74
2023/09/30 10:24:49;;;;;;;7.63;5.25;;;;;;;;;;5046616;28;20049;-73
2023/09/30 10:27:34;;;;;;;9.90;5.95;;;;;;;;;;5041329;28;20050;-74
2023/09/30 10:30:10;;;;;;;7.85;5.72;;;;;;;;;;5047954;28;20081;-74
2023/09/30 10:33:14;;;;;;;8.27;5.35;;;;;;;;;;5047539;28;20044;-74
2023/09/30 10:35:48;;;;;;;7.57;5.85;;;;;;;;;;5047079;28;20102;-74
2023/09/30 10:38:43;;;;;;;9.70;5.70;;;;;;;;;;5044983;28;20045;-74
2023/09/30 10:41:11;;;;;;;7.05;5.03;;;;;;;;;;5045801;28;20049;-74
2023/09/30 10:43:41;;;;;;;8.70;5.15;;;;;;;;;;5049183;28;20049;-74
2023/09/30 10:46:34;;;;;;;9.48;5.93;;;;;;;;;;5048382;28;20048;-74
2023/09/30 10:49:35;;;;;;;6.90;5.03;;;;;;;;;;5046137;28;20095;-74
2023/09/30 10:52:02;;;;;;;8.00;5.85;;;;;;;;;;4961715;28;20042;-74
2023/09/30 10:54:30;;;;;;;9.07;6.13;;;;;;;;;;5030048;28;20058;-73
2023/09/30 10:56:59;;;;;;;10.00;5.63;;;;;;;;;;5051192;28;20493;-74
2023/09/30 10:59:30;;;;;;;7.00;5.63;;;;;;;;;;5046224;28;20045;-74
2023/09/30 11:01:57;;;;;;;8.88;5.43;;;;;;;;;;5049947;28;20041;-74
2023/09/30 11:04:23;;;;;;;10.13;6.00;;;;;;;;;;5049195;28;20052;-73
2023/09/30 11:06:51;;;;;;;9.15;4.90;;;;;;;;;;5053014;28;20491;-74
2023/09/30 11:09:19;;;;;;;8.32;5.43;;;;;;;;;;5047914;28;20050;-74
2023/09/30 11:11:48;;;;;;;7.78;4.90;;;;;;;;;;5042190;28;20053;-74
2023/09/30 11:14:19;;;;;;;10.13;4.55;;;;;;;;;;5051724;28;20053;-74
2023/09/30 11:16:48;;;;;;;7.05;4.13;;;;;;;;;;5053729;28;20462;-74
2023/09/30 11:19:15;;;;;;;6.90;4.10;;;;;;;;;;5042333;28;20041;-71
2023/09/30 11:21:43;;;;;;;6.22;3.40;;;;;;;;;;5050134;28;20479;-71
2023/09/30 11:24:10;;;;;;;6.18;2.97;;;;;;;;;;5055301;28;20048;-72
2023/09/30 11:26:36;;;;;;;5.70;3.58;;;;;;;;;;5052666;28;20128;-71
2023/09/30 11:29:07;;;;;;;8.32;3.25;;;;;;;;;;5048581;28;20045;-71
2023/09/30 11:31:34;;;;;;;6.15;3.20;;;;;;;;;;5054241;28;20060;-72
2023/09/30 11:34:03;;;;;;;6.55;3.00;;;;;;;;;;5057566;28;20045;-72
2023/09/30 11:36:31;;;;;;;5.82;3.88;;;;;;;;;;5043626;28;20417;-72
2023/09/30 11:38:58;;;;;;;6.45;3.30;;;;;;;;;;5055310;28;20052;-71
2023/09/30 11:41:33;;;;;;;4.53;2.97;;;;;;;;;;5057628;28;20045;-72
2023/09/30 11:44:04;;;;;;;7.22;3.38;;;;;;;;;;5047031;28;20519;-72
2023/09/30 11:46:33;;;;;;;7.13;3.22;;;;;;;;;;5040866;28;20049;-73
2023/09/30 11:49:02;;;;;;;6.72;3.10;;;;;;;;;;5057630;28;20053;-71
2023/09/30 11:51:31;;;;;;;6.70;3.17;;;;;;;;;;5047752;28;20041;-72
2023/09/30 11:53:58;;;;;;;6.65;3.17;;;;;;;;;;5046107;28;20497;-72
2023/09/30 11:56:28;;;;;;;6.68;3.35;;;;;;;;;;5047002;28;20052;-72
2023/09/30 11:58:56;;;;;;;5.88;3.40;;;;;;;;;;5042071;28;20068;-72
2023/09/30 12:01:25;;;;;;;7.18;3.30;;;;;;;;;;5042284;28;20056;-71
2023/09/30 12:03:53;;;;;;;6.68;2.95;;;;;;;;;;5049243;28;20052;-72
2023/09/30 12:06:21;;;;;;;7.75;2.95;;;;;;;;;;5051782;28;20051;-72
2023/09/30 12:08:47;;;;;;;7.43;3.58;;;;;;;;;;5051931;28;20044;-72
2023/09/30 12:11:15;;;;;;;5.80;3.05;;;;;;;;;;5047613;28;20045;-72
2023/09/30 12:13:44;;;;;;;6.07;2.85;;;;;;;;;;5038952;28;20056;-72
2023/09/30 12:16:11;;;;;;;7.00;3.20;;;;;;;;;;5044436;28;20180;-71
2023/09/30 12:18:38;;;;;;;6.88;2.88;;;;;;;;;;5057247;28;20041;-72
2023/09/30 12:21:06;;;;;;;5.55;2.88;;;;;;;;;;5043916;28;20111;-72
2023/09/30 12:23:35;;;;;;;4.82;3.10;;;;;;;;;;5044070;28;20045;-71
2023/09/30 12:26:04;;;;;;;7.45;3.20;;;;;;;;;;5055023;28;20048;-72
2023/09/30 12:28:32;;;;;;;5.55;3.03;;;;;;;;;;5042513;28;20493;-73
2023/09/30 12:30:58;;;;;;;5.75;2.85;;;;;;;;;;5058446;28;20042;-72
2023/09/30 12:33:27;;;;;;;5.68;2.67;;;;;;;;;;5043660;28;20046;-72
2023/09/30 12:35:53;;;;;;;5.60;3.03;;;;;;;;;;5048395;28;20045;-72
2023/09/30 12:38:20;;;;;;;6.10;2.90;;;;;;;;;;5056415;28;20060;-72
2023/09/30 12:40:48;;;;;;;5.70;2.85;;;;;;;;;;5047570;28;20049;-72
2023/09/30 12:43:15;;;;;;;5.55;2.70;;;;;;;;;;5045619;28;20074;-72
2023/09/30 12:45:41;;;;;;;5.40;2.90;;;;;;;;;;5041296;28;20049;-72
2023/09/30 12:48:08;;;;;;;5.25;2.70;;;;;;;;;;5046528;28;20053;-72
2023/09/30 12:50:35;;;;;;;8.00;3.22;;;;;;;;;;5055001;28;20402;-73
2023/09/30 12:53:01;;;;;;;6.05;3.10;;;;;;;;;;5048287;28;20056;-71
2023/09/30 12:55:28;;;;;;;6.93;3.00;;;;;;;;;;5041943;28;20168;-71
2023/09/30 12:57:56;;;;;;;7.30;3.15;;;;;;;;;;5046903;28;20053;-72
2023/09/30 13:00:24;;;;;;;4.80;2.70;;;;;;;;;;5039125;28;20052;-72
2023/09/30 13:02:51;;;;;;;6.30;3.20;;;;;;;;;;5045563;28;20486;-72
2023/09/30 13:05:18;;;;;;;7.93;2.85;;;;;;;;;;5043840;28;20060;-72
2023/09/30 13:07:46;;;;;;;4.38;2.60;;;;;;;;;;5035563;28;20057;-73
2023/09/30 13:10:12;;;;;;;4.70;2.67;;;;;;;;;;5042461;28;20131;-72
2023/09/30 13:12:39;;;;;;;4.50;2.97;;;;;;;;;;5044998;28;20049;-73
2023/09/30 13:15:09;;;;;;;4.35;2.42;;;;;;;;;;5050351;28;20053;-72
2023/09/30 13:17:35;;;;;;;4.78;2.83;;;;;;;;;;5050453;28;20060;-73
2023/09/30 13:20:04;;;;;;;6.15;2.90;;;;;;;;;;5047227;28;20056;-70
2023/09/30 13:22:31;;;;;;;4.75;2.50;;;;;;;;;;5045014;28;20068;-72
2023/09/30 13:24:58;;;;;;;5.80;2.70;;;;;;;;;;5049621;28;20051;-72
2023/09/30 13:27:24;;;;;;;4.80;2.30;;;;;;;;;;5051452;28;20041;-72
2023/09/30 13:29:51;;;;;;;4.30;3.00;;;;;;;;;;5057195;28;20045;-72
2023/09/30 13:32:19;;;;;;;5.07;2.60;;;;;;;;;;5047353;28;20394;-73
2023/09/30 13:34:46;;;;;;;4.20;2.13;;;;;;;;;;5045216;28;20076;-70
2023/09/30 13:37:13;;;;;;;4.05;2.47;;;;;;;;;;5047376;28;20061;-73
2023/09/30 13:39:39;;;;;;;5.47;2.75;;;;;;;;;;5045700;28;20045;-74
2023/09/30 13:42:07;;;;;;;4.80;2.80;;;;;;;;;;5047599;28;20061;-73
2023/09/30 13:44:33;;;;;;;4.88;2.50;;;;;;;;;;5043732;28;20087;-73
2023/09/30 13:47:00;;;;;;;5.70;2.95;;;;;;;;;;5045085;28;20052;-71
2023/09/30 13:49:27;;;;;;;3.80;2.50;;;;;;;;;;5046976;28;20064;-71
2023/09/30 13:51:54;;;;;;;3.65;2.40;;;;;;;;;;5033507;28;20490;-71
2023/09/30 13:54:20;;;;;;;3.95;2.45;;;;;;;;;;5044593;28;20055;-71
2023/09/30 13:56:47;;;;;;;5.47;2.97;;;;;;;;;;5044613;28;20409;-71
2023/09/30 13:59:14;;;;;;;4.03;2.40;;;;;;;;;;5051162;28;20046;-71
2023/09/30 14:01:41;;;;;;;4.32;2.42;;;;;;;;;;5042207;28;20049;-71
2023/09/30 14:04:08;;;;;;;4.38;2.58;;;;;;;;;;5047623;28;20052;-71
2023/09/30 14:06:36;;;;;;;4.45;2.55;;;;;;;;;;5051003;28;20041;-72
2023/09/30 14:09:03;;;;;;;4.28;2.58;;;;;;;;;;5041986;28;20053;-71
2023/09/30 14:11:30;;;;;;;4.15;2.30;;;;;;;;;;5038881;28;20049;-72
2023/09/30 14:13:57;;;;;;;4.53;2.33;;;;;;;;;;5044588;28;20053;-72
2023/09/30 14:16:23;;;;;;;4.53;2.28;;;;;;;;;;5043195;28;20045;-71
2023/09/30 14:18:50;;;;;;;4.95;2.40;;;;;;;;;;5045911;28;20045;-71
2023/09/30 14:21:18;;;;;;;4.40;2.50;;;;;;;;;;5040622;28;20076;-71
2023/09/30 14:23:46;;;;;;;6.05;2.50;;;;;;;;;;5043532;28;20519;-71
2023/09/30 14:26:12;;;;;;;3.40;2.30;;;;;;;;;;5043857;28;20050;-71
2023/09/30 14:28:39;;;;;;;4.68;2.50;;;;;;;;;;5053998;28;20045;-71
2023/09/30 14:31:05;;;;;;;2.92;2.00;;;;;;;;;;5049386;28;20437;-71
2023/09/30 14:33:32;;;;;;;3.63;2.13;;;;;;;;;;5048785;28;20450;-70
2023/09/30 14:35:59;;;;;;;3.80;2.22;;;;;;;;;;5044803;28;20456;-70
2023/09/30 14:38:25;;;;;;;4.25;2.40;;;;;;;;;;5039647;28;20046;-72
2023/09/30 14:40:53;;;;;;;4.13;2.40;;;;;;;;;;5051063;28;20131;-71
2023/09/30 14:43:20;;;;;;;3.58;2.13;;;;;;;;;;5051124;28;20056;-71